createdAt,value
2022-08-26T00:02:23.738Z,100640.00
2022-08-26T00:04:50.207Z,100637.91
2022-08-26T00:07:16.758Z,100637.22
2022-08-26T00:12:36.204Z,100633.38
2022-08-26T00:15:05.093Z,100640.19
2022-08-26T00:17:31.600Z,100628.97
2022-08-26T00:19:58.049Z,100636.22
2022-08-26T00:22:25.389Z,100631.09
2022-08-26T00:27:48.862Z,100630.34
2022-08-26T00:30:15.356Z,100630.06
2022-08-26T00:32:42.039Z,100631.56
2022-08-26T00:35:13.702Z,100632.75
2022-08-26T00:37:42.264Z,100626.03
2022-08-26T00:42:53.839Z,100628.03
2022-08-26T00:45:20.328Z,100627.28
2022-08-26T00:47:49.245Z,100628.50
2022-08-26T00:50:17.005Z,100621.38
2022-08-26T00:52:44.026Z,100623.03
2022-08-26T00:57:54.684Z,100624.28
2022-08-26T01:00:21.173Z,100632.63
2022-08-26T01:02:48.555Z,100634.22
2022-08-26T01:05:15.705Z,100639.78
2022-08-26T01:07:43.561Z,100635.31
2022-08-26T01:12:53.807Z,100639.84
2022-08-26T01:15:21.144Z,100625.91
2022-08-26T01:17:48.580Z,100628.75
2022-08-26T01:20:15.972Z,100632.03
2022-08-26T01:22:42.431Z,100636.81
2022-08-26T01:28:04.180Z,100626.94
2022-08-26T01:30:30.628Z,100633.31
2022-08-26T01:32:57.900Z,100625.81
2022-08-26T01:35:24.385Z,100631.00
2022-08-26T01:37:50.833Z,100634.94
2022-08-26T01:43:13.338Z,100627.44
2022-08-26T01:45:39.823Z,100625.38
2022-08-26T01:48:06.296Z,100624.94
2022-08-26T01:50:33.694Z,100623.81
2022-08-26T01:53:01.082Z,100625.00
2022-08-26T01:58:23.483Z,100629.47
2022-08-26T02:00:50.924Z,100627.44
2022-08-26T02:03:17.447Z,100623.50
2022-08-26T02:05:44.824Z,100630.63
2022-08-26T02:08:15.322Z,100627.81
2022-08-26T02:13:46.484Z,100625.41
2022-08-26T02:16:14.147Z,100636.53
2022-08-26T02:18:41.456Z,100632.69
2022-08-26T02:21:09.406Z,100636.66
2022-08-26T02:23:36.777Z,100631.53
2022-08-26T02:28:48.381Z,100624.34
2022-08-26T02:31:14.970Z,100620.31
2022-08-26T02:33:42.939Z,100626.34
2022-08-26T02:36:09.661Z,100624.81
2022-08-26T02:38:39.504Z,100626.81
2022-08-26T02:43:50.528Z,100625.22
2022-08-26T02:46:28.047Z,100621.53
2022-08-26T02:48:57.391Z,100619.44
2022-08-26T02:51:25.331Z,100618.31
2022-08-26T02:53:51.781Z,100625.53
2022-08-26T02:59:13.202Z,100618.44
2022-08-26T03:01:40.654Z,100618.44
2022-08-26T03:04:08.122Z,100618.47
2022-08-26T03:06:35.498Z,100620.13
2022-08-26T03:09:04.238Z,100622.44
2022-08-26T03:14:25.513Z,100621.72
2022-08-26T03:16:53.035Z,100613.41
2022-08-26T03:19:20.428Z,100615.47
2022-08-26T03:21:47.791Z,100611.03
2022-08-26T03:24:14.265Z,100621.84
2022-08-26T03:29:35.528Z,100617.44
2022-08-26T03:32:02.016Z,100620.63
2022-08-26T03:34:29.405Z,100624.53
2022-08-26T03:36:56.781Z,100621.34
2022-08-26T03:39:24.178Z,100619.78
2022-08-26T03:44:35.868Z,100616.69
2022-08-26T03:47:04.523Z,100618.59
2022-08-26T03:49:33.352Z,100615.34
2022-08-26T03:52:01.691Z,100611.38
2022-08-26T03:54:29.046Z,100610.25
2022-08-26T03:59:50.815Z,100617.03
2022-08-26T04:02:19.134Z,100619.78
2022-08-26T04:04:45.606Z,100616.53
2022-08-26T04:07:13.005Z,100611.09
2022-08-26T04:09:39.466Z,100611.41
2022-08-26T04:15:00.291Z,100605.81
2022-08-26T04:17:26.719Z,100616.06
2022-08-26T04:19:53.188Z,100615.56
2022-08-26T04:22:24.872Z,100615.88
2022-08-26T04:24:51.561Z,100616.63
2022-08-26T04:30:02.122Z,100607.78
2022-08-26T04:32:28.607Z,100611.72
2022-08-26T04:34:55.970Z,100614.19
2022-08-26T04:37:25.328Z,100611.13
2022-08-26T04:39:53.072Z,100612.13
2022-08-26T04:45:05.837Z,100610.25
2022-08-26T04:47:36.517Z,100607.94
2022-08-26T04:50:03.095Z,100610.34
2022-08-26T04:52:30.559Z,100609.66
2022-08-26T04:54:58.402Z,100612.13
2022-08-26T05:00:09.770Z,100616.22
2022-08-26T05:02:38.505Z,100618.25
2022-08-26T05:05:06.196Z,100622.16
2022-08-26T05:07:33.026Z,100619.25
2022-08-26T05:09:59.775Z,100614.81
2022-08-26T05:15:10.277Z,100618.34
2022-08-26T05:17:37.650Z,100621.47
2022-08-26T05:20:04.813Z,100621.88
2022-08-26T05:22:33.876Z,100614.22
2022-08-26T05:25:01.743Z,100616.16
2022-08-26T05:30:13.822Z,100616.91
2022-08-26T05:32:41.420Z,100619.66
2022-08-26T05:35:09.647Z,100616.94
2022-08-26T05:37:37.358Z,100626.88
2022-08-26T05:40:05.102Z,100622.28
2022-08-26T05:45:27.572Z,100622.88
2022-08-26T05:47:54.092Z,100631.69
2022-08-26T05:50:21.458Z,100628.09
2022-08-26T05:52:50.240Z,100633.28
2022-08-26T05:55:17.587Z,100629.75
2022-08-26T06:00:41.637Z,100626.91
2022-08-26T06:03:08.337Z,100632.03
2022-08-26T06:05:38.269Z,100624.78
2022-08-26T06:08:05.709Z,100630.69
2022-08-26T06:10:33.736Z,100629.78
2022-08-26T06:15:54.679Z,100626.50
2022-08-26T06:18:22.443Z,100618.81
2022-08-26T06:20:56.799Z,100617.19
2022-08-26T06:23:24.951Z,100617.53
2022-08-26T06:25:51.448Z,100620.19
2022-08-26T06:31:14.840Z,100624.09
2022-08-26T06:33:41.393Z,100626.84
2022-08-26T06:36:08.810Z,100639.16
2022-08-26T06:38:36.513Z,100633.13
2022-08-26T06:41:03.597Z,100624.25
2022-08-26T06:46:26.079Z,100628.06
2022-08-26T06:48:52.649Z,100624.56
2022-08-26T06:51:19.115Z,100628.44
2022-08-26T06:53:49.775Z,100636.34
2022-08-26T06:56:16.220Z,100634.69
2022-08-26T07:01:27.186Z,100632.97
2022-08-26T07:03:54.255Z,100630.09
2022-08-26T07:06:23.461Z,100632.44
2022-08-26T07:08:49.890Z,100625.56
2022-08-26T07:11:16.427Z,100635.13
2022-08-26T07:16:27.230Z,100626.91
2022-08-26T07:18:55.807Z,100620.06
2022-08-26T07:21:23.527Z,100628.03
2022-08-26T07:23:50.247Z,100620.34
2022-08-26T07:26:17.486Z,100617.47
2022-08-26T07:31:42.698Z,100616.94
2022-08-26T07:34:09.516Z,100622.13
2022-08-26T07:36:36.172Z,100616.44
2022-08-26T07:39:02.672Z,100618.34
2022-08-26T07:41:31.081Z,100617.91
2022-08-26T07:46:56.830Z,100614.63
2022-08-26T07:49:23.450Z,100610.94
2022-08-26T07:51:51.955Z,100613.66
2022-08-26T07:54:19.882Z,100612.06
2022-08-26T07:56:46.344Z,100604.91
2022-08-26T08:02:00.400Z,100603.31
2022-08-26T08:04:26.932Z,100608.91
2022-08-26T08:06:54.196Z,100607.63
2022-08-26T08:09:22.544Z,100606.75
2022-08-26T08:11:51.381Z,100605.84
2022-08-26T08:17:02.175Z,100602.44
2022-08-26T08:19:36.636Z,100601.91
2022-08-26T08:22:04.190Z,100597.63
2022-08-26T08:24:43.425Z,100599.72
2022-08-26T08:27:10.405Z,100591.22
2022-08-26T08:32:21.753Z,100589.13
2022-08-26T08:34:48.223Z,100597.28
2022-08-26T08:37:14.618Z,100593.38
2022-08-26T08:39:41.066Z,100590.22
2022-08-26T08:42:07.575Z,100584.97
2022-08-26T08:47:18.892Z,100586.38
2022-08-26T08:49:47.121Z,100586.47
2022-08-26T08:52:13.491Z,100578.50
2022-08-26T08:54:40.725Z,100574.13
2022-08-26T08:57:08.520Z,100581.69
2022-08-26T09:02:18.917Z,100581.25
2022-08-26T09:04:46.327Z,100581.69
2022-08-26T09:07:12.776Z,100582.72
2022-08-26T09:09:39.124Z,100577.34
2022-08-26T09:12:05.487Z,100579.78
2022-08-26T09:17:25.995Z,100582.34
2022-08-26T09:19:53.267Z,100581.97
2022-08-26T09:24:51.850Z,100572.38
2022-08-26T09:27:19.407Z,100566.06
2022-08-26T09:32:29.863Z,100573.00
2022-08-26T09:34:56.232Z,100569.41
2022-08-26T09:37:22.666Z,100563.81
2022-08-26T09:39:49.079Z,100562.69
2022-08-26T09:42:16.766Z,100562.25
2022-08-26T09:47:27.827Z,100553.97
2022-08-26T09:49:54.808Z,100560.81
2022-08-26T09:52:22.086Z,100553.00
2022-08-26T09:54:48.456Z,100548.31
2022-08-26T09:57:15.685Z,100549.94
2022-08-26T09:59:42.022Z,100553.19
2022-08-26T10:02:12.293Z,100551.16
2022-08-26T10:04:42.350Z,100546.00
2022-08-26T10:07:12.373Z,100552.41
2022-08-26T10:09:42.410Z,100544.41
2022-08-26T10:12:09.033Z,100542.84
2022-08-26T10:14:39.311Z,100541.63
2022-08-26T10:17:06.836Z,100540.84
2022-08-26T10:19:55.943Z,100544.09
2022-08-26T10:22:21.891Z,100526.00
2022-08-26T10:24:54.486Z,100536.00
2022-08-26T10:27:21.455Z,100528.78
2022-08-26T10:29:48.014Z,100525.22
2022-08-26T10:32:14.881Z,100526.28
2022-08-26T10:34:41.395Z,100522.94
2022-08-26T10:37:13.472Z,100526.97
2022-08-26T10:39:41.532Z,100527.34
2022-08-26T10:42:09.895Z,100526.09
2022-08-26T10:44:37.440Z,100523.94
2022-08-26T10:47:08.407Z,100530.09
2022-08-26T10:49:34.847Z,100524.94
2022-08-26T10:52:01.337Z,100523.47
2022-08-26T10:54:27.812Z,100523.09
2022-08-26T10:56:55.393Z,100519.50
2022-08-26T10:59:22.786Z,100512.31
2022-08-26T11:01:52.636Z,100512.31
2022-08-26T11:04:20.242Z,100508.72
2022-08-26T11:06:50.006Z,100510.72
2022-08-26T11:09:16.491Z,100510.72
2022-08-26T11:11:42.961Z,100498.63
2022-08-26T11:14:10.355Z,100497.03
2022-08-26T11:16:42.890Z,100499.41
2022-08-26T11:19:10.239Z,100493.78
2022-08-26T11:21:36.758Z,100490.19
2022-08-26T11:24:03.319Z,100489.78
2022-08-26T11:26:43.141Z,100482.50
2022-08-26T11:29:19.985Z,100480.94
2022-08-26T11:31:47.532Z,100482.50
2022-08-26T11:34:14.034Z,100484.50
2022-08-26T11:36:40.509Z,100477.31
2022-08-26T11:39:07.427Z,100478.47
2022-08-26T11:41:34.823Z,100481.25
2022-08-26T11:44:02.337Z,100478.91
2022-08-26T11:46:29.000Z,100470.47
2022-08-26T11:48:56.386Z,100473.28
2022-08-26T11:51:24.378Z,100472.84
2022-08-26T11:53:52.013Z,100476.44
2022-08-26T11:56:19.413Z,100473.63
2022-08-26T11:58:47.939Z,100467.22
2022-08-26T12:01:14.435Z,100469.59
2022-08-26T12:03:44.559Z,100468.00
2022-08-26T12:06:12.059Z,100461.63
2022-08-26T12:08:41.634Z,100454.75
2022-08-26T12:11:08.132Z,100452.75
2022-08-26T12:13:35.528Z,100450.72
2022-08-26T12:16:04.431Z,100445.09
2022-08-26T12:18:32.526Z,100441.84
2022-08-26T12:21:01.182Z,100435.44
2022-08-26T12:23:28.911Z,100447.47
2022-08-26T12:25:55.596Z,100445.44
2022-08-26T12:28:23.361Z,100444.66
2022-08-26T12:30:50.732Z,100435.44
2022-08-26T12:36:11.613Z,100419.41
2022-08-26T12:38:39.425Z,100420.16
2022-08-26T12:41:06.901Z,100410.16
2022-08-26T12:43:34.381Z,100411.75
2022-08-26T12:46:01.795Z,100414.56
2022-08-26T12:51:13.630Z,100406.13
2022-08-26T12:53:40.128Z,100406.13
2022-08-26T12:56:06.634Z,100398.47
2022-08-26T12:58:34.050Z,100401.28
2022-08-26T13:01:00.636Z,100401.28
2022-08-26T13:06:15.932Z,100392.88
2022-08-26T13:08:43.713Z,100389.28
2022-08-26T13:11:10.217Z,100392.09
2022-08-26T13:13:37.636Z,100383.22
2022-08-26T13:16:06.125Z,100384.44
2022-08-26T13:21:17.495Z,100376.03
2022-08-26T13:23:44.876Z,100378.84
2022-08-26T13:26:11.379Z,100374.03
2022-08-26T13:28:37.873Z,100371.22
2022-08-26T13:31:05.413Z,100371.22
2022-08-26T13:36:17.894Z,100366.38
2022-08-26T13:38:45.266Z,100369.19
2022-08-26T13:41:28.903Z,100368.41
2022-08-26T13:43:57.052Z,100372.78
2022-08-26T13:46:25.495Z,100368.75
2022-08-26T13:51:35.808Z,100353.13
2022-08-26T13:54:02.282Z,100362.34
2022-08-26T13:56:28.790Z,100363.56
2022-08-26T13:58:56.141Z,100354.69
2022-08-26T14:01:22.607Z,100357.97
2022-08-26T14:06:43.085Z,100356.72
2022-08-26T14:09:11.448Z,100350.31
2022-08-26T14:11:50.715Z,100354.69
2022-08-26T14:14:21.211Z,100351.91
2022-08-26T14:16:58.695Z,100354.69
2022-08-26T14:22:30.682Z,100341.88
2022-08-26T14:24:57.252Z,100343.47
2022-08-26T14:27:23.721Z,100346.28
2022-08-26T14:29:50.218Z,100343.47
2022-08-26T14:32:17.898Z,100348.66
2022-08-26T14:34:47.876Z,100345.03
2022-08-26T14:37:15.391Z,100335.81
2022-08-26T14:39:42.914Z,100332.25
2022-08-26T14:42:10.296Z,100326.63
2022-08-26T14:44:36.987Z,100322.56
2022-08-26T14:47:04.466Z,100320.56
2022-08-26T14:52:14.811Z,100326.19
2022-08-26T14:54:42.204Z,100329.00
2022-08-26T14:57:08.680Z,100329.00
2022-08-26T14:59:35.202Z,100334.16
2022-08-26T15:02:02.745Z,100330.53
2022-08-26T15:07:23.081Z,100323.91
2022-08-26T15:09:49.546Z,100321.00
2022-08-26T15:12:16.237Z,100324.13
2022-08-26T15:14:43.577Z,100320.09
2022-08-26T15:17:10.100Z,100319.22
2022-08-26T15:22:31.438Z,100308.31
2022-08-26T15:24:57.930Z,100313.47
2022-08-26T15:27:24.471Z,100317.38
2022-08-26T15:29:51.061Z,100303.34
2022-08-26T15:32:17.453Z,100314.13
2022-08-26T15:37:30.589Z,100301.22
2022-08-26T15:39:57.106Z,100305.59
2022-08-26T15:42:23.664Z,100296.38
2022-08-26T15:44:50.065Z,100301.53
2022-08-26T15:47:17.335Z,100300.28
2022-08-26T15:52:28.442Z,100294.66
2022-08-26T15:54:55.778Z,100293.44
2022-08-26T15:57:23.453Z,100289.00
2022-08-26T15:59:51.029Z,100286.13
2022-08-26T16:02:18.341Z,100294.19
2022-08-26T16:07:29.370Z,100290.31
2022-08-26T16:09:55.763Z,100290.56
2022-08-26T16:12:22.177Z,100287.41
2022-08-26T16:14:49.439Z,100288.97
2022-08-26T16:17:19.193Z,100283.00
2022-08-26T16:22:29.498Z,100285.47
2022-08-26T16:25:00.540Z,100285.09
2022-08-26T16:27:27.863Z,100287.91
2022-08-26T16:29:54.282Z,100282.59
2022-08-26T16:32:21.551Z,100276.00
2022-08-26T16:37:42.645Z,100278.78
2022-08-26T16:40:09.969Z,100281.41
2022-08-26T16:42:36.455Z,100284.50
2022-08-26T16:45:02.886Z,100293.25
2022-08-26T16:47:30.151Z,100280.53
2022-08-26T16:52:51.188Z,100286.13
2022-08-26T16:55:22.029Z,100291.03
2022-08-26T16:57:49.290Z,100289.28
2022-08-26T17:00:15.725Z,100294.88
2022-08-26T17:02:42.195Z,100288.28
2022-08-26T17:08:04.120Z,100288.22
2022-08-26T17:10:31.531Z,100291.38
2022-08-26T17:12:57.985Z,100293.72
2022-08-26T17:15:24.398Z,100289.47
2022-08-26T17:17:51.645Z,100287.97
2022-08-26T17:23:12.611Z,100293.50
2022-08-26T17:25:39.037Z,100293.13
2022-08-26T17:28:07.534Z,100301.50
2022-08-26T17:30:39.816Z,100298.28
2022-08-26T17:33:10.641Z,100297.31
2022-08-26T17:38:33.262Z,100295.72
2022-08-26T17:41:00.502Z,100298.25
2022-08-26T17:43:26.919Z,100301.69
2022-08-26T17:45:54.204Z,100300.00
2022-08-26T17:48:20.691Z,100304.84
2022-08-26T17:53:41.743Z,100304.91
2022-08-26T17:56:09.131Z,100305.69
2022-08-26T17:58:35.617Z,100306.72
2022-08-26T18:01:02.132Z,100302.56
2022-08-26T18:03:29.605Z,100305.38
2022-08-26T18:08:51.020Z,100300.72
2022-08-26T18:11:17.524Z,100304.06
2022-08-26T18:13:46.984Z,100303.84
2022-08-26T18:16:14.219Z,100314.97
2022-08-26T18:18:40.692Z,100308.06
2022-08-26T18:24:01.543Z,100306.22
2022-08-26T18:26:28.952Z,100308.84
2022-08-26T18:28:55.427Z,100305.88
2022-08-26T18:31:22.880Z,100308.34
2022-08-26T18:33:50.311Z,100309.22
2022-08-26T18:39:10.941Z,100307.78
2022-08-26T18:41:37.425Z,100310.53
2022-08-26T18:44:04.862Z,100313.88
2022-08-26T18:46:31.508Z,100317.13
2022-08-26T18:48:58.029Z,100320.09
2022-08-26T18:54:09.594Z,100331.56
2022-08-26T18:56:36.098Z,100314.25
2022-08-26T18:59:03.530Z,100321.22
2022-08-26T19:01:31.060Z,100325.06
2022-08-26T19:03:57.609Z,100320.34
2022-08-26T19:09:09.027Z,100321.69
2022-08-26T19:11:37.416Z,100322.47
2022-08-26T19:14:10.500Z,100322.13
2022-08-26T19:16:37.924Z,100321.19
2022-08-26T19:19:04.444Z,100328.84
2022-08-26T19:24:26.045Z,100320.97
2022-08-26T19:26:57.566Z,100323.88
2022-08-26T19:29:24.630Z,100320.72
2022-08-26T19:31:51.186Z,100321.84
2022-08-26T19:34:20.233Z,100321.19
2022-08-26T19:39:32.579Z,100325.63
2022-08-26T19:41:59.080Z,100320.22
2022-08-26T19:44:25.574Z,100326.19
2022-08-26T19:46:52.088Z,100325.13
2022-08-26T19:49:18.576Z,100330.50
2022-08-26T19:54:29.491Z,100333.75
2022-08-26T19:56:56.899Z,100332.34
2022-08-26T19:59:23.360Z,100330.56
2022-08-26T20:02:00.641Z,100335.25
2022-08-26T20:04:28.946Z,100334.28
2022-08-26T20:09:50.545Z,100333.78
2022-08-26T20:12:17.934Z,100329.38
2022-08-26T20:14:45.313Z,100330.34
2022-08-26T20:17:11.804Z,100331.31
2022-08-26T20:19:39.196Z,100332.84
2022-08-26T20:25:00.549Z,100325.97
2022-08-26T20:27:27.265Z,100330.59
2022-08-26T20:30:05.248Z,100340.00
2022-08-26T20:32:35.603Z,100331.34
2022-08-26T20:35:02.329Z,100339.38
2022-08-26T20:40:14.203Z,100340.19
2022-08-26T20:42:41.670Z,100335.91
2022-08-26T20:45:09.218Z,100342.34
2022-08-26T20:47:35.774Z,100340.66
2022-08-26T20:50:02.340Z,100340.91
2022-08-26T20:55:23.707Z,100352.94
2022-08-26T20:57:51.164Z,100347.78
2022-08-26T21:00:18.611Z,100356.47
2022-08-26T21:02:48.377Z,100349.47
2022-08-26T21:05:15.874Z,100344.59
2022-08-26T21:10:36.769Z,100352.91
2022-08-26T21:13:04.222Z,100354.25
2022-08-26T21:15:31.682Z,100345.88
2022-08-26T21:17:58.324Z,100352.31
2022-08-26T21:20:25.770Z,100355.28
2022-08-26T21:25:37.367Z,100345.50
2022-08-26T21:28:04.810Z,100349.38
2022-08-26T21:30:32.265Z,100345.94
2022-08-26T21:32:59.682Z,100350.25
2022-08-26T21:35:27.195Z,100349.53
2022-08-26T21:40:39.067Z,100350.81
2022-08-26T21:43:06.510Z,100342.53
2022-08-26T21:45:34.002Z,100342.47
2022-08-26T21:48:01.503Z,100338.75
2022-08-26T21:50:28.969Z,100344.69
2022-08-26T21:55:49.693Z,100341.19
2022-08-26T21:58:17.343Z,100341.56
2022-08-26T22:00:44.859Z,100344.00
2022-08-26T22:03:12.301Z,100344.88
2022-08-26T22:05:39.775Z,100343.66
2022-08-26T22:10:52.373Z,100346.63
2022-08-26T22:13:18.913Z,100338.56
2022-08-26T22:15:46.387Z,100340.75
2022-08-26T22:18:13.822Z,100340.94
2022-08-26T22:20:41.259Z,100338.31
2022-08-26T22:25:51.609Z,100348.66
2022-08-26T22:28:19.024Z,100346.00
2022-08-26T22:30:45.570Z,100339.81
2022-08-26T22:33:12.991Z,100340.34
2022-08-26T22:35:39.572Z,100339.91
2022-08-26T22:40:52.433Z,100338.94
2022-08-26T22:43:18.980Z,100340.41
2022-08-26T22:45:45.568Z,100346.69
2022-08-26T22:48:12.281Z,100341.63
2022-08-26T22:50:39.772Z,100336.97
2022-08-26T22:56:01.191Z,100340.16
2022-08-26T22:58:30.962Z,100339.25
2022-08-26T23:00:57.654Z,100337.31
2022-08-26T23:03:27.012Z,100338.56
2022-08-26T23:05:53.603Z,100329.34
2022-08-26T23:11:04.955Z,100329.75
2022-08-26T23:13:32.394Z,100324.94
2022-08-26T23:15:58.996Z,100327.75
2022-08-26T23:18:25.499Z,100323.50
2022-08-26T23:20:52.019Z,100327.31
2022-08-26T23:26:17.561Z,100333.28
2022-08-26T23:28:44.352Z,100325.59
2022-08-26T23:31:11.822Z,100319.47
2022-08-26T23:33:39.273Z,100319.22
2022-08-26T23:36:05.795Z,100323.38
2022-08-26T23:41:26.389Z,100308.47
2022-08-26T23:43:52.998Z,100309.13
2022-08-26T23:46:20.476Z,100300.94
2022-08-26T23:48:46.994Z,100305.34
2022-08-26T23:51:14.451Z,100309.25
2022-08-26T23:56:26.841Z,100301.25
2022-08-26T23:58:54.378Z,100302.03
